Airfield :
LOGIN :

Register | Disclaimer

   EN    FR    IT 

 










Legend :    VFR   Marginal VFR   IFR   Intensive IFR   Very Intensive IFR
Visi :
Ceiling :
>= 8 km
>= 3000ft
5 to 8 km
1000 to 3000 ft
1500m to 5 km
500 to 1000 ft
800 to 1500m
200 to 500 ft
< 800m
< 200 ft
Symbols :   Thunderstorms  Fog  Heavy snow  Heavy precipitations  Wind > 20 kt
SIGMETs :     Misc.  Thunderstorms  Icing  Turbulence  Mountain Waves  Volcanic Ashes






- Airport Elevation : 47 ft
- IATA code : CBG


EGSC - Cambridge

CURRENT METAR :
  • 231420Z 27011KT 240V300 9999 BKN030 16/09 Q1013

EXPIRED METARs :
  • 231350Z 26010KT 210V270 9999 BKN032 16/09 Q1013
  • 231320Z 25011KT 210V270 9999 BKN028 15/09 Q1013
  • 231250Z 24012KT 9999 BKN025 15/09 Q1013
  • 231220Z 26012KT 9999 BKN025 15/09 Q1013
  • 231150Z 25014KT 210V270 9999 BKN025 15/09 Q1013
  • 231120Z 27014KT 9999 BKN025 14/09 Q1013
  • 231050Z 26012KT 220V300 9999 BKN025 14/09 Q1013
  • 231020Z 26011KT 230V300 9999 BKN023 14/09 Q1012
  • 230950Z 25012KT 210V290 9999 BKN023 14/09 Q1012

TAF TAF EGSC
Valid from the 23 at 12:00 until the 23 at 17:00 UTC


231054Z 2312/2317 25012KT 9999 BKN030



MET'MAP, your aeronautical weather chart ! - Copyright ORBIFLY December 2007 - Disclaimer

ORBIFLY MET'MAP TEAM :

Programming & Development : Alexandra Zaïnal
Original concept : Baudouin d'Aumeries
Technical & hardware support : Manuel Goepfert
Assistance : Marc-Olivier Méhu




SOURCES & CREDITS :

   NOAA